createdAt,value
2022-11-14T00:02:48.486Z,50.58
2022-11-14T00:07:49.973Z,52.03
2022-11-14T00:12:51.424Z,51.28
2022-11-14T00:17:52.893Z,55.15
2022-11-14T00:22:54.359Z,51.17
2022-11-14T00:27:59.147Z,54.22
2022-11-14T00:33:00.943Z,52.95
2022-11-14T00:38:02.488Z,55.53
2022-11-14T00:43:04.005Z,51.67
2022-11-14T00:48:05.569Z,50.92
2022-11-14T00:53:07.060Z,51.45
2022-11-14T00:58:08.600Z,50.08
2022-11-14T01:03:10.125Z,53.15
2022-11-14T01:08:13.215Z,54.45
2022-11-14T01:13:15.706Z,52.08
2022-11-14T01:18:20.510Z,58.60
2022-11-14T01:23:21.985Z,55.65
2022-11-14T01:28:23.447Z,54.83
2022-11-14T01:33:24.908Z,56.80
2022-11-14T01:38:26.482Z,56.92
2022-11-14T01:43:37.902Z,59.03
2022-11-14T01:48:47.647Z,57.30
2022-11-14T01:53:54.013Z,62.90
2022-11-14T01:59:24.621Z,60.78
2022-11-14T02:04:30.804Z,62.10
2022-11-14T02:09:36.804Z,64.43
2022-11-14T02:14:38.960Z,68.38
2022-11-14T02:20:05.240Z,65.07
2022-11-14T02:25:12.895Z,67.57
2022-11-14T02:30:18.626Z,71.40
2022-11-14T02:35:20.476Z,72.07
2022-11-14T02:40:22.003Z,74.05
2022-11-14T02:45:23.682Z,79.30
2022-11-14T02:50:25.162Z,70.55
2022-11-14T02:55:26.644Z,70.68
2022-11-14T03:00:28.157Z,73.47
2022-11-14T03:05:29.670Z,75.15
2022-11-14T03:10:31.727Z,72.68
2022-11-14T03:15:37.375Z,76.63
2022-11-14T03:20:39.265Z,80.03
2022-11-14T03:25:40.732Z,82.35
2022-11-14T03:30:42.248Z,83.25
2022-11-14T03:35:43.803Z,91.85
2022-11-14T03:40:45.422Z,82.22
2022-11-14T03:45:47.974Z,87.45
2022-11-14T03:50:49.853Z,87.55
2022-11-14T03:55:52.351Z,88.53
2022-11-14T04:00:56.040Z,91.35
2022-11-14T04:05:57.642Z,89.82
2022-11-14T04:10:59.090Z,87.53
2022-11-14T04:16:00.965Z,89.25
2022-11-14T04:21:02.409Z,86.28
2022-11-14T04:26:03.953Z,91.72
2022-11-14T04:31:05.469Z,97.85
2022-11-14T04:36:07.243Z,89.60
2022-11-14T04:41:08.708Z,94.25
2022-11-14T04:46:10.184Z,86.80
2022-11-14T04:51:11.670Z,86.68
2022-11-14T04:56:13.187Z,79.30
2022-11-14T05:01:15.006Z,79.30
2022-11-14T05:06:16.641Z,76.18
2022-11-14T05:11:21.477Z,75.68
2022-11-14T05:16:25.196Z,78.65
2022-11-14T05:21:26.711Z,74.80
2022-11-14T05:26:28.188Z,74.00
2022-11-14T05:31:29.762Z,66.75
2022-11-14T05:36:31.214Z,78.93
2022-11-14T05:41:32.724Z,91.45
2022-11-14T05:46:34.205Z,87.13
2022-11-14T05:51:35.745Z,87.00
2022-11-14T05:56:37.278Z,87.10
2022-11-14T06:01:38.852Z,91.60
2022-11-14T06:06:40.600Z,89.07
2022-11-14T06:11:42.109Z,83.50
2022-11-14T06:16:43.573Z,66.65
2022-11-14T06:21:45.013Z,71.25
2022-11-14T06:26:46.468Z,64.28
2022-11-14T06:31:47.948Z,66.47
2022-11-14T06:36:49.415Z,70.57
2022-11-14T06:41:51.014Z,69.10
2022-11-14T06:46:52.494Z,63.78
2022-11-14T06:51:54.269Z,66.78
2022-11-14T06:56:56.167Z,73.63
2022-11-14T07:01:58.927Z,61.33
2022-11-14T07:07:00.449Z,68.47
2022-11-14T07:12:01.963Z,64.03
2022-11-14T07:17:03.523Z,70.40
2022-11-14T07:22:05.030Z,68.55
2022-11-14T07:27:08.904Z,61.60
2022-11-14T07:32:10.392Z,64.38
2022-11-14T07:37:11.891Z,67.53
2022-11-14T07:42:13.360Z,65.53
2022-11-14T07:47:14.858Z,62.58
2022-11-14T07:52:16.368Z,65.80
2022-11-14T07:57:17.859Z,61.42
2022-11-14T08:02:19.343Z,58.47
2022-11-14T08:07:21.058Z,58.22
2022-11-14T08:12:22.651Z,59.25
2022-11-14T08:17:24.514Z,61.15
2022-11-14T08:22:26.041Z,54.42
2022-11-14T08:27:27.560Z,51.65
2022-11-14T08:32:29.081Z,51.05
2022-11-14T08:37:30.901Z,49.33
2022-11-14T08:42:32.384Z,53.88
2022-11-14T08:47:33.829Z,51.63
2022-11-14T08:52:35.303Z,50.88
2022-11-14T08:57:36.807Z,56.45
2022-11-14T09:02:38.399Z,52.70
2022-11-14T09:07:40.047Z,55.10
2022-11-14T09:12:41.512Z,49.83
2022-11-14T09:17:43.026Z,50.05
2022-11-14T09:22:44.485Z,45.97
2022-11-14T09:27:46.378Z,47.58
2022-11-14T09:32:48.054Z,40.67
2022-11-14T09:37:49.524Z,46.40
2022-11-14T09:43:31.995Z,44.95
2022-11-14T09:48:33.784Z,44.50
2022-11-14T09:53:53.342Z,46.78
2022-11-14T09:58:56.566Z,43.22
2022-11-14T10:04:22.098Z,41.33
2022-11-14T10:09:41.934Z,34.88
2022-11-14T10:15:24.187Z,41.95
2022-11-14T10:20:35.078Z,37.38
2022-11-14T10:25:55.099Z,41.83
2022-11-14T10:31:03.338Z,36.88
2022-11-14T10:36:16.486Z,36.03
2022-11-14T10:41:35.093Z,39.90
2022-11-14T10:46:47.025Z,43.40
2022-11-14T10:51:55.813Z,43.17
2022-11-14T10:56:57.302Z,45.22
2022-11-14T11:01:59.003Z,40.85
2022-11-14T11:07:09.540Z,41.25
2022-11-14T11:12:37.157Z,39.50
2022-11-14T11:17:54.929Z,36.93
2022-11-14T11:23:03.644Z,34.40
2022-11-14T11:28:14.415Z,36.63
2022-11-14T11:33:36.714Z,35.15
2022-11-14T11:38:38.748Z,34.42
2022-11-14T11:43:52.469Z,32.15
2022-11-14T11:49:17.546Z,32.75
2022-11-14T11:54:22.968Z,34.95
2022-11-14T11:59:38.588Z,30.58
2022-11-14T12:04:41.023Z,33.42
2022-11-14T12:10:09.491Z,34.50
2022-11-14T12:15:30.331Z,34.67
2022-11-14T12:21:05.627Z,32.73
2022-11-14T12:26:44.765Z,33.22
2022-11-14T12:31:47.373Z,28.40
2022-11-14T12:36:49.078Z,32.88
2022-11-14T12:41:50.855Z,37.25
2022-11-14T12:47:04.621Z,34.42
2022-11-14T12:52:41.033Z,28.60
2022-11-14T12:58:05.299Z,33.97
2022-11-14T13:03:37.667Z,32.13
2022-11-14T13:08:53.276Z,32.13
2022-11-14T13:14:20.985Z,29.10
2022-11-14T13:19:41.525Z,32.22
2022-11-14T13:25:04.074Z,28.95
2022-11-14T13:30:08.100Z,31.08
2022-11-14T13:35:34.762Z,31.17
2022-11-14T13:41:03.589Z,33.30
2022-11-14T13:46:17.108Z,29.60
2022-11-14T13:51:42.145Z,33.38
2022-11-14T13:57:13.254Z,33.17
2022-11-14T14:02:36.476Z,30.80
2022-11-14T14:07:46.943Z,33.80
2022-11-14T14:13:00.614Z,28.10
2022-11-14T14:18:25.420Z,33.10
2022-11-14T14:23:44.234Z,30.40
2022-11-14T14:29:27.936Z,36.08
2022-11-14T14:34:31.391Z,37.63
2022-11-14T14:39:33.143Z,39.63
2022-11-14T14:44:38.797Z,44.90
2022-11-14T14:49:40.765Z,44.58
2022-11-14T14:54:42.348Z,44.90
2022-11-14T14:59:44.826Z,46.15
2022-11-14T15:04:46.346Z,47.28
2022-11-14T15:09:59.725Z,45.20
2022-11-14T15:15:02.600Z,46.42
2022-11-14T15:20:04.589Z,44.03
2022-11-14T15:25:11.889Z,48.78
2022-11-14T15:30:22.867Z,51.78
2022-11-14T15:35:25.673Z,48.15
2022-11-14T15:40:27.497Z,49.85
2022-11-14T15:45:40.094Z,45.10
2022-11-14T15:50:41.841Z,42.72
2022-11-14T15:55:43.395Z,37.65
2022-11-14T16:00:48.253Z,35.22
2022-11-14T16:05:49.894Z,34.95
2022-11-14T16:10:51.440Z,39.50
2022-11-14T16:15:52.995Z,34.78
2022-11-14T16:20:58.756Z,35.55
2022-11-14T16:26:00.294Z,36.25
2022-11-14T16:31:01.895Z,30.88
2022-11-14T16:36:03.707Z,31.73
2022-11-14T16:41:09.415Z,30.30
2022-11-14T16:46:11.467Z,29.58
2022-11-14T16:51:40.959Z,30.90
2022-11-14T16:56:34.525Z,30.02
2022-11-14T17:01:36.566Z,31.40
2022-11-14T17:06:38.180Z,30.67
2022-11-14T17:11:39.713Z,33.00
2022-11-14T17:16:41.167Z,37.15
2022-11-14T17:21:43.572Z,37.17
2022-11-14T17:26:45.094Z,42.67
2022-11-14T17:31:47.311Z,43.40
2022-11-14T17:36:48.914Z,39.65
2022-11-14T17:41:50.412Z,39.05
2022-11-14T17:46:53.643Z,43.25
2022-11-14T17:51:55.104Z,45.53
2022-11-14T17:56:58.121Z,40.50
2022-11-14T18:01:59.828Z,48.03
2022-11-14T18:07:01.551Z,47.72
2022-11-14T18:12:03.170Z,47.08
2022-11-14T18:17:13.381Z,37.85
2022-11-14T18:22:15.072Z,42.00
2022-11-14T18:27:16.666Z,45.38
2022-11-14T18:32:18.520Z,40.97
2022-11-14T18:37:20.079Z,36.65
2022-11-14T18:42:21.745Z,38.13
2022-11-14T18:47:23.220Z,34.00
2022-11-14T18:52:24.747Z,33.28
2022-11-14T18:57:26.218Z,35.78
2022-11-14T19:02:27.792Z,32.13
2022-11-14T19:07:30.160Z,29.83
2022-11-14T19:12:31.683Z,30.48
2022-11-14T19:17:33.151Z,30.38
2022-11-14T19:22:34.808Z,35.17
2022-11-14T19:27:36.572Z,28.13
2022-11-14T19:32:38.057Z,23.88
2022-11-14T19:37:39.528Z,27.17
2022-11-14T19:42:41.008Z,25.13
2022-11-14T19:47:42.450Z,23.13
2022-11-14T19:52:43.974Z,22.60
2022-11-14T19:57:45.656Z,19.58
2022-11-14T20:02:47.122Z,21.25
2022-11-14T20:07:48.568Z,20.33
2022-11-14T20:12:50.024Z,21.33
2022-11-14T20:17:51.478Z,22.38
2022-11-14T20:22:53.001Z,22.23
2022-11-14T20:27:54.473Z,20.88
2022-11-14T20:32:55.907Z,22.17
2022-11-14T20:38:00.540Z,22.10
2022-11-14T20:43:07.175Z,23.92
2022-11-14T20:48:08.645Z,18.75
2022-11-14T20:53:10.106Z,21.60
2022-11-14T20:58:11.571Z,20.58
2022-11-14T21:03:13.054Z,23.08
2022-11-14T21:08:16.596Z,22.15
2022-11-14T21:13:39.375Z,21.95
2022-11-14T21:18:45.145Z,20.17
2022-11-14T21:23:49.785Z,24.50
2022-11-14T21:28:55.000Z,21.00
2022-11-14T21:33:57.709Z,21.92
2022-11-14T21:38:59.229Z,23.27
2022-11-14T21:44:02.966Z,21.77
2022-11-14T21:49:04.427Z,23.38
2022-11-14T21:54:06.487Z,24.40
2022-11-14T21:59:13.523Z,29.58
2022-11-14T22:04:15.451Z,27.63
2022-11-14T22:09:16.988Z,30.98
2022-11-14T22:14:18.450Z,32.00
2022-11-14T22:19:20.006Z,26.88
2022-11-14T22:24:22.108Z,30.10
2022-11-14T22:29:23.614Z,28.73
2022-11-14T22:34:25.090Z,27.50
2022-11-14T22:39:26.545Z,29.52
2022-11-14T22:44:28.008Z,34.55
2022-11-14T22:49:29.507Z,30.67
2022-11-14T22:54:30.974Z,35.63
2022-11-14T22:59:32.433Z,34.30
2022-11-14T23:04:33.936Z,35.80
2022-11-14T23:09:35.401Z,35.22
2022-11-14T23:14:36.873Z,35.17
2022-11-14T23:19:38.369Z,34.60
2022-11-14T23:24:39.887Z,36.35
2022-11-14T23:29:41.360Z,37.55
2022-11-14T23:34:42.810Z,38.50
2022-11-14T23:39:44.343Z,37.63
2022-11-14T23:44:45.817Z,37.13
2022-11-14T23:49:47.336Z,39.00
2022-11-14T23:54:48.809Z,39.22
2022-11-14T23:59:50.274Z,41.67
